sensor_id;sensor_type;location;lat;lon;timestamp;temperature;humidity
38488;DHT22;57384;51.986;4.458;2022-12-24T00:02:09;10.90;91.30
38488;DHT22;57384;51.986;4.458;2022-12-24T00:04:53;10.90;91.30
38488;DHT22;57384;51.986;4.458;2022-12-24T00:07:37;10.80;91.20
38488;DHT22;57384;51.986;4.458;2022-12-24T00:10:21;10.80;91.20
38488;DHT22;57384;51.986;4.458;2022-12-24T00:13:05;10.80;91.20
38488;DHT22;57384;51.986;4.458;2022-12-24T00:15:50;10.70;91.20
38488;DHT22;57384;51.986;4.458;2022-12-24T00:18:34;10.70;91.20
38488;DHT22;57384;51.986;4.458;2022-12-24T00:21:18;10.70;91.20
38488;DHT22;57384;51.986;4.458;2022-12-24T00:24:02;10.70;91.20
38488;DHT22;57384;51.986;4.458;2022-12-24T00:26:46;10.60;91.20
38488;DHT22;57384;51.986;4.458;2022-12-24T00:29:31;10.60;91.20
38488;DHT22;57384;51.986;4.458;2022-12-24T00:32:16;10.60;91.20
38488;DHT22;57384;51.986;4.458;2022-12-24T00:35:01;10.60;91.20
38488;DHT22;57384;51.986;4.458;2022-12-24T00:37:48;10.50;91.20
38488;DHT22;57384;51.986;4.458;2022-12-24T00:40:33;10.50;91.20
38488;DHT22;57384;51.986;4.458;2022-12-24T00:43:17;10.50;91.20
38488;DHT22;57384;51.986;4.458;2022-12-24T00:46:01;10.50;91.20
38488;DHT22;57384;51.986;4.458;2022-12-24T00:48:45;10.40;91.10
38488;DHT22;57384;51.986;4.458;2022-12-24T00:51:30;10.40;91.20
38488;DHT22;57384;51.986;4.458;2022-12-24T00:54:14;10.30;91.10
38488;DHT22;57384;51.986;4.458;2022-12-24T00:56:59;10.30;91.10
38488;DHT22;57384;51.986;4.458;2022-12-24T00:59:44;10.30;91.20
38488;DHT22;57384;51.986;4.458;2022-12-24T01:02:28;10.30;91.20
38488;DHT22;57384;51.986;4.458;2022-12-24T01:05:12;10.30;91.20
38488;DHT22;57384;51.986;4.458;2022-12-24T01:07:56;10.20;91.10
38488;DHT22;57384;51.986;4.458;2022-12-24T01:10:40;10.20;91.20
38488;DHT22;57384;51.986;4.458;2022-12-24T01:13:24;10.20;91.20
38488;DHT22;57384;51.986;4.458;2022-12-24T01:16:17;10.10;91.10
38488;DHT22;57384;51.986;4.458;2022-12-24T01:19:01;10.10;91.20
38488;DHT22;57384;51.986;4.458;2022-12-24T01:21:45;10.10;91.10
38488;DHT22;57384;51.986;4.458;2022-12-24T01:24:31;10.10;91.20
38488;DHT22;57384;51.986;4.458;2022-12-24T01:27:15;10.10;91.20
38488;DHT22;57384;51.986;4.458;2022-12-24T01:29:59;10.00;91.10
38488;DHT22;57384;51.986;4.458;2022-12-24T01:32:43;10.00;91.10
38488;DHT22;57384;51.986;4.458;2022-12-24T01:35:28;10.00;91.20
38488;DHT22;57384;51.986;4.458;2022-12-24T01:38:13;9.90;91.10
38488;DHT22;57384;51.986;4.458;2022-12-24T01:40:57;9.90;91.20
38488;DHT22;57384;51.986;4.458;2022-12-24T01:43:41;9.90;91.20
38488;DHT22;57384;51.986;4.458;2022-12-24T01:46:28;9.90;91.20
38488;DHT22;57384;51.986;4.458;2022-12-24T01:49:15;9.80;91.20
38488;DHT22;57384;51.986;4.458;2022-12-24T01:52:24;9.80;91.20
38488;DHT22;57384;51.986;4.458;2022-12-24T01:55:09;9.80;91.20
38488;DHT22;57384;51.986;4.458;2022-12-24T01:57:57;9.80;91.20
38488;DHT22;57384;51.986;4.458;2022-12-24T02:00:43;9.80;91.20
38488;DHT22;57384;51.986;4.458;2022-12-24T02:03:27;9.80;91.20
38488;DHT22;57384;51.986;4.458;2022-12-24T02:06:12;9.80;91.20
38488;DHT22;57384;51.986;4.458;2022-12-24T02:08:58;9.70;91.20
38488;DHT22;57384;51.986;4.458;2022-12-24T02:11:42;9.70;91.20
38488;DHT22;57384;51.986;4.458;2022-12-24T02:14:28;9.60;91.20
38488;DHT22;57384;51.986;4.458;2022-12-24T02:27:16;9.60;91.30
38488;DHT22;57384;51.986;4.458;2022-12-24T02:30:08;9.60;91.30
38488;DHT22;57384;51.986;4.458;2022-12-24T02:33:03;9.50;91.30
38488;DHT22;57384;51.986;4.458;2022-12-24T02:39:08;9.50;91.40
38488;DHT22;57384;51.986;4.458;2022-12-24T02:41:54;9.50;91.40
38488;DHT22;57384;51.986;4.458;2022-12-24T02:44:47;9.50;91.40
38488;DHT22;57384;51.986;4.458;2022-12-24T02:47:33;9.50;91.40
38488;DHT22;57384;51.986;4.458;2022-12-24T02:50:18;9.50;91.40
38488;DHT22;57384;51.986;4.458;2022-12-24T02:53:02;9.50;91.40
38488;DHT22;57384;51.986;4.458;2022-12-24T02:56:03;9.60;91.50
38488;DHT22;57384;51.986;4.458;2022-12-24T02:59:01;9.50;91.50
38488;DHT22;57384;51.986;4.458;2022-12-24T03:04:58;9.50;91.50
38488;DHT22;57384;51.986;4.458;2022-12-24T03:08:13;9.50;91.60
38488;DHT22;57384;51.986;4.458;2022-12-24T03:11:09;9.60;91.60
38488;DHT22;57384;51.986;4.458;2022-12-24T03:13:54;9.50;91.60
38488;DHT22;57384;51.986;4.458;2022-12-24T03:16:41;9.50;91.60
38488;DHT22;57384;51.986;4.458;2022-12-24T03:19:26;9.50;91.60
38488;DHT22;57384;51.986;4.458;2022-12-24T03:22:11;9.60;91.70
38488;DHT22;57384;51.986;4.458;2022-12-24T03:24:56;9.60;91.70
38488;DHT22;57384;51.986;4.458;2022-12-24T03:27:40;9.60;91.70
38488;DHT22;57384;51.986;4.458;2022-12-24T03:30:25;9.60;91.70
38488;DHT22;57384;51.986;4.458;2022-12-24T03:33:13;9.60;91.70
38488;DHT22;57384;51.986;4.458;2022-12-24T03:35:58;9.60;91.70
38488;DHT22;57384;51.986;4.458;2022-12-24T03:38:42;9.60;91.70
38488;DHT22;57384;51.986;4.458;2022-12-24T03:41:26;9.60;91.70
38488;DHT22;57384;51.986;4.458;2022-12-24T03:44:10;9.60;91.70
38488;DHT22;57384;51.986;4.458;2022-12-24T03:46:54;9.70;91.80
38488;DHT22;57384;51.986;4.458;2022-12-24T03:49:38;9.60;91.80
38488;DHT22;57384;51.986;4.458;2022-12-24T03:52:22;9.70;91.80
38488;DHT22;57384;51.986;4.458;2022-12-24T03:55:07;9.70;91.80
38488;DHT22;57384;51.986;4.458;2022-12-24T03:57:53;9.70;91.80
38488;DHT22;57384;51.986;4.458;2022-12-24T04:00:40;9.70;91.80
38488;DHT22;57384;51.986;4.458;2022-12-24T04:03:24;9.60;91.80
38488;DHT22;57384;51.986;4.458;2022-12-24T04:06:11;9.70;91.90
38488;DHT22;57384;51.986;4.458;2022-12-24T04:08:56;9.70;91.90
38488;DHT22;57384;51.986;4.458;2022-12-24T04:11:40;9.70;91.90
38488;DHT22;57384;51.986;4.458;2022-12-24T04:14:24;9.70;91.90
38488;DHT22;57384;51.986;4.458;2022-12-24T04:17:08;9.70;91.90
38488;DHT22;57384;51.986;4.458;2022-12-24T04:19:52;9.60;91.90
38488;DHT22;57384;51.986;4.458;2022-12-24T04:22:37;9.70;92.00
38488;DHT22;57384;51.986;4.458;2022-12-24T04:25:22;9.70;92.00
38488;DHT22;57384;51.986;4.458;2022-12-24T04:28:06;9.70;92.00
38488;DHT22;57384;51.986;4.458;2022-12-24T04:30:50;9.70;92.00
38488;DHT22;57384;51.986;4.458;2022-12-24T04:33:35;9.70;92.00
38488;DHT22;57384;51.986;4.458;2022-12-24T04:36:23;9.80;92.00
38488;DHT22;57384;51.986;4.458;2022-12-24T04:39:07;9.80;92.00
38488;DHT22;57384;51.986;4.458;2022-12-24T04:41:51;9.70;91.90
38488;DHT22;57384;51.986;4.458;2022-12-24T04:44:35;9.70;91.90
38488;DHT22;57384;51.986;4.458;2022-12-24T04:47:26;9.70;92.00
38488;DHT22;57384;51.986;4.458;2022-12-24T04:50:26;9.80;92.00
38488;DHT22;57384;51.986;4.458;2022-12-24T04:53:19;9.80;92.10
38488;DHT22;57384;51.986;4.458;2022-12-24T04:56:06;9.80;92.10
38488;DHT22;57384;51.986;4.458;2022-12-24T04:58:52;9.80;92.10
38488;DHT22;57384;51.986;4.458;2022-12-24T05:01:37;9.80;92.00
38488;DHT22;57384;51.986;4.458;2022-12-24T05:04:21;9.80;92.00
38488;DHT22;57384;51.986;4.458;2022-12-24T05:07:05;9.80;92.00
38488;DHT22;57384;51.986;4.458;2022-12-24T05:09:49;9.80;92.00
38488;DHT22;57384;51.986;4.458;2022-12-24T05:12:33;9.80;92.00
38488;DHT22;57384;51.986;4.458;2022-12-24T05:15:17;9.90;92.10
38488;DHT22;57384;51.986;4.458;2022-12-24T05:18:02;9.80;92.00
38488;DHT22;57384;51.986;4.458;2022-12-24T05:20:46;9.90;92.10
38488;DHT22;57384;51.986;4.458;2022-12-24T05:23:31;9.90;92.10
38488;DHT22;57384;51.986;4.458;2022-12-24T05:26:52;9.90;92.10
38488;DHT22;57384;51.986;4.458;2022-12-24T05:29:37;9.90;92.10
38488;DHT22;57384;51.986;4.458;2022-12-24T05:32:21;9.90;92.00
38488;DHT22;57384;51.986;4.458;2022-12-24T05:35:05;9.90;92.10
38488;DHT22;57384;51.986;4.458;2022-12-24T05:37:49;9.90;92.10
38488;DHT22;57384;51.986;4.458;2022-12-24T05:40:33;9.90;92.10
38488;DHT22;57384;51.986;4.458;2022-12-24T05:43:17;10.00;92.10
38488;DHT22;57384;51.986;4.458;2022-12-24T05:46:04;10.00;92.10
38488;DHT22;57384;51.986;4.458;2022-12-24T05:48:50;10.00;92.10
38488;DHT22;57384;51.986;4.458;2022-12-24T05:51:34;10.00;92.10
38488;DHT22;57384;51.986;4.458;2022-12-24T05:54:19;10.00;92.10
38488;DHT22;57384;51.986;4.458;2022-12-24T05:57:03;10.00;92.10
38488;DHT22;57384;51.986;4.458;2022-12-24T05:59:47;10.00;92.10
38488;DHT22;57384;51.986;4.458;2022-12-24T06:02:31;10.00;92.10
38488;DHT22;57384;51.986;4.458;2022-12-24T06:05:15;10.00;92.00
38488;DHT22;57384;51.986;4.458;2022-12-24T06:08:00;10.00;92.00
38488;DHT22;57384;51.986;4.458;2022-12-24T06:10:44;10.00;92.00
38488;DHT22;57384;51.986;4.458;2022-12-24T06:13:29;10.00;92.00
38488;DHT22;57384;51.986;4.458;2022-12-24T06:16:16;10.00;92.00
38488;DHT22;57384;51.986;4.458;2022-12-24T06:19:00;10.00;92.00
38488;DHT22;57384;51.986;4.458;2022-12-24T06:21:44;9.90;92.00
38488;DHT22;57384;51.986;4.458;2022-12-24T06:24:31;9.90;92.00
38488;DHT22;57384;51.986;4.458;2022-12-24T06:27:15;9.90;92.00
38488;DHT22;57384;51.986;4.458;2022-12-24T06:30:06;9.90;92.00
38488;DHT22;57384;51.986;4.458;2022-12-24T06:32:50;9.90;92.00
38488;DHT22;57384;51.986;4.458;2022-12-24T06:35:34;9.90;92.00
38488;DHT22;57384;51.986;4.458;2022-12-24T06:38:21;9.90;92.00
38488;DHT22;57384;51.986;4.458;2022-12-24T06:41:06;9.90;92.00
38488;DHT22;57384;51.986;4.458;2022-12-24T06:43:51;9.90;92.00
38488;DHT22;57384;51.986;4.458;2022-12-24T06:46:36;9.90;92.00
38488;DHT22;57384;51.986;4.458;2022-12-24T06:49:20;9.80;92.00
38488;DHT22;57384;51.986;4.458;2022-12-24T06:52:10;9.80;92.00
38488;DHT22;57384;51.986;4.458;2022-12-24T06:54:54;9.80;92.00
38488;DHT22;57384;51.986;4.458;2022-12-24T06:57:38;9.80;92.00
38488;DHT22;57384;51.986;4.458;2022-12-24T07:00:23;9.80;92.00
38488;DHT22;57384;51.986;4.458;2022-12-24T07:03:07;9.80;92.00
38488;DHT22;57384;51.986;4.458;2022-12-24T07:05:57;9.80;92.00
38488;DHT22;57384;51.986;4.458;2022-12-24T07:08:43;9.70;92.00
38488;DHT22;57384;51.986;4.458;2022-12-24T07:11:27;9.70;91.90
38488;DHT22;57384;51.986;4.458;2022-12-24T07:14:14;9.70;91.90
38488;DHT22;57384;51.986;4.458;2022-12-24T07:16:58;9.70;92.00
38488;DHT22;57384;51.986;4.458;2022-12-24T07:19:42;9.70;91.90
38488;DHT22;57384;51.986;4.458;2022-12-24T07:22:27;9.70;92.00
38488;DHT22;57384;51.986;4.458;2022-12-24T07:25:11;9.60;91.90
38488;DHT22;57384;51.986;4.458;2022-12-24T07:27:55;9.60;91.90
38488;DHT22;57384;51.986;4.458;2022-12-24T07:30:40;9.60;92.00
38488;DHT22;57384;51.986;4.458;2022-12-24T07:33:25;9.60;92.00
38488;DHT22;57384;51.986;4.458;2022-12-24T07:36:21;9.60;92.00
38488;DHT22;57384;51.986;4.458;2022-12-24T07:39:07;9.60;92.00
38488;DHT22;57384;51.986;4.458;2022-12-24T07:41:52;9.60;92.00
38488;DHT22;57384;51.986;4.458;2022-12-24T07:44:36;9.60;92.00
38488;DHT22;57384;51.986;4.458;2022-12-24T07:47:20;9.50;91.90
38488;DHT22;57384;51.986;4.458;2022-12-24T07:50:05;9.60;92.00
38488;DHT22;57384;51.986;4.458;2022-12-24T07:52:49;9.60;92.00
38488;DHT22;57384;51.986;4.458;2022-12-24T07:55:34;9.50;92.00
38488;DHT22;57384;51.986;4.458;2022-12-24T07:58:19;9.50;92.00
38488;DHT22;57384;51.986;4.458;2022-12-24T08:01:04;9.60;92.00
38488;DHT22;57384;51.986;4.458;2022-12-24T08:03:48;9.50;92.00
38488;DHT22;57384;51.986;4.458;2022-12-24T08:06:32;9.50;92.00
38488;DHT22;57384;51.986;4.458;2022-12-24T08:09:17;9.50;92.00
38488;DHT22;57384;51.986;4.458;2022-12-24T08:12:01;9.50;92.00
38488;DHT22;57384;51.986;4.458;2022-12-24T08:14:45;9.50;92.00
38488;DHT22;57384;51.986;4.458;2022-12-24T08:17:29;9.60;92.10
38488;DHT22;57384;51.986;4.458;2022-12-24T08:20:15;9.60;92.10
38488;DHT22;57384;51.986;4.458;2022-12-24T08:22:59;9.50;92.10
38488;DHT22;57384;51.986;4.458;2022-12-24T08:25:44;9.50;92.10
38488;DHT22;57384;51.986;4.458;2022-12-24T08:28:29;9.50;92.10
38488;DHT22;57384;51.986;4.458;2022-12-24T08:31:13;9.50;92.10
38488;DHT22;57384;51.986;4.458;2022-12-24T08:33:57;9.50;92.10
38488;DHT22;57384;51.986;4.458;2022-12-24T08:36:41;9.50;92.20
38488;DHT22;57384;51.986;4.458;2022-12-24T08:39:25;9.50;92.20
38488;DHT22;57384;51.986;4.458;2022-12-24T08:42:09;9.50;92.20
38488;DHT22;57384;51.986;4.458;2022-12-24T08:44:53;9.50;92.20
38488;DHT22;57384;51.986;4.458;2022-12-24T08:47:38;9.50;92.20
38488;DHT22;57384;51.986;4.458;2022-12-24T08:50:23;9.50;92.20
38488;DHT22;57384;51.986;4.458;2022-12-24T08:53:08;9.60;92.30
38488;DHT22;57384;51.986;4.458;2022-12-24T08:55:52;9.60;92.30
38488;DHT22;57384;51.986;4.458;2022-12-24T08:58:46;9.60;92.30
38488;DHT22;57384;51.986;4.458;2022-12-24T09:01:30;9.60;92.30
38488;DHT22;57384;51.986;4.458;2022-12-24T09:04:14;9.60;92.30
38488;DHT22;57384;51.986;4.458;2022-12-24T09:06:58;9.70;92.30
38488;DHT22;57384;51.986;4.458;2022-12-24T09:09:43;9.70;92.30
38488;DHT22;57384;51.986;4.458;2022-12-24T09:12:28;9.70;92.30
38488;DHT22;57384;51.986;4.458;2022-12-24T09:15:12;9.70;92.40
38488;DHT22;57384;51.986;4.458;2022-12-24T09:17:56;9.70;92.30
38488;DHT22;57384;51.986;4.458;2022-12-24T09:20:44;9.80;92.40
38488;DHT22;57384;51.986;4.458;2022-12-24T09:23:29;9.80;92.40
38488;DHT22;57384;51.986;4.458;2022-12-24T09:26:18;9.80;92.40
38488;DHT22;57384;51.986;4.458;2022-12-24T09:29:08;9.80;92.40
38488;DHT22;57384;51.986;4.458;2022-12-24T09:31:59;9.80;92.40
38488;DHT22;57384;51.986;4.458;2022-12-24T09:34:46;9.80;92.40
38488;DHT22;57384;51.986;4.458;2022-12-24T09:37:39;9.80;92.40
38488;DHT22;57384;51.986;4.458;2022-12-24T09:40:32;9.90;92.40
38488;DHT22;57384;51.986;4.458;2022-12-24T09:43:20;9.90;92.40
38488;DHT22;57384;51.986;4.458;2022-12-24T09:46:16;9.90;92.40
38488;DHT22;57384;51.986;4.458;2022-12-24T09:49:12;9.90;92.50
38488;DHT22;57384;51.986;4.458;2022-12-24T09:52:07;10.00;92.50
38488;DHT22;57384;51.986;4.458;2022-12-24T09:55:26;10.00;92.50
38488;DHT22;57384;51.986;4.458;2022-12-24T09:58:51;10.00;92.50
38488;DHT22;57384;51.986;4.458;2022-12-24T10:01:39;10.10;92.50
38488;DHT22;57384;51.986;4.458;2022-12-24T10:04:31;10.10;92.40
38488;DHT22;57384;51.986;4.458;2022-12-24T10:10:54;10.20;92.50
38488;DHT22;57384;51.986;4.458;2022-12-24T10:17:17;10.20;92.40
38488;DHT22;57384;51.986;4.458;2022-12-24T10:23:30;10.30;92.30
38488;DHT22;57384;51.986;4.458;2022-12-24T10:26:43;10.40;92.40
38488;DHT22;57384;51.986;4.458;2022-12-24T10:29:36;10.40;92.30
38488;DHT22;57384;51.986;4.458;2022-12-24T10:32:30;10.50;92.30
38488;DHT22;57384;51.986;4.458;2022-12-24T10:45:56;10.60;92.30
38488;DHT22;57384;51.986;4.458;2022-12-24T10:49:01;10.70;91.90
38488;DHT22;57384;51.986;4.458;2022-12-24T10:52:03;10.80;92.00
38488;DHT22;57384;51.986;4.458;2022-12-24T10:59:59;10.80;91.80
38488;DHT22;57384;51.986;4.458;2022-12-24T11:02:46;10.90;91.80
38488;DHT22;57384;51.986;4.458;2022-12-24T11:05:35;10.90;91.80
38488;DHT22;57384;51.986;4.458;2022-12-24T11:08:21;10.90;91.70
38488;DHT22;57384;51.986;4.458;2022-12-24T11:11:15;11.00;91.70
38488;DHT22;57384;51.986;4.458;2022-12-24T11:14:00;11.00;91.70
38488;DHT22;57384;51.986;4.458;2022-12-24T11:16:52;11.00;91.70
38488;DHT22;57384;51.986;4.458;2022-12-24T11:19:38;11.10;91.60
38488;DHT22;57384;51.986;4.458;2022-12-24T11:22:25;11.10;91.60
38488;DHT22;57384;51.986;4.458;2022-12-24T11:25:23;11.10;91.60
38488;DHT22;57384;51.986;4.458;2022-12-24T11:28:28;11.10;91.60
38488;DHT22;57384;51.986;4.458;2022-12-24T11:31:20;11.20;91.60
38488;DHT22;57384;51.986;4.458;2022-12-24T11:33:50;11.20;91.50
38488;DHT22;57384;51.986;4.458;2022-12-24T11:36:23;11.20;91.50
38488;DHT22;57384;51.986;4.458;2022-12-24T11:38:52;11.30;91.50
38488;DHT22;57384;51.986;4.458;2022-12-24T11:41:23;11.30;91.50
38488;DHT22;57384;51.986;4.458;2022-12-24T11:43:59;11.30;91.40
38488;DHT22;57384;51.986;4.458;2022-12-24T11:51:39;11.40;91.30
38488;DHT22;57384;51.986;4.458;2022-12-24T11:54:15;11.40;91.30
38488;DHT22;57384;51.986;4.458;2022-12-24T11:56:51;11.40;91.20
38488;DHT22;57384;51.986;4.458;2022-12-24T11:59:51;11.40;91.20
38488;DHT22;57384;51.986;4.458;2022-12-24T12:02:27;11.50;91.20
38488;DHT22;57384;51.986;4.458;2022-12-24T12:04:59;11.50;91.20
38488;DHT22;57384;51.986;4.458;2022-12-24T12:07:36;11.50;91.20
38488;DHT22;57384;51.986;4.458;2022-12-24T12:13:22;11.50;91.00
38488;DHT22;57384;51.986;4.458;2022-12-24T12:18:59;11.50;91.00
38488;DHT22;57384;51.986;4.458;2022-12-24T12:21:37;11.60;91.00
38488;DHT22;57384;51.986;4.458;2022-12-24T12:24:36;11.60;90.90
38488;DHT22;57384;51.986;4.458;2022-12-24T12:27:15;11.60;90.90
38488;DHT22;57384;51.986;4.458;2022-12-24T12:30:13;11.60;90.90
38488;DHT22;57384;51.986;4.458;2022-12-24T12:33:18;11.60;90.90
38488;DHT22;57384;51.986;4.458;2022-12-24T12:35:48;11.60;90.80
38488;DHT22;57384;51.986;4.458;2022-12-24T12:38:26;11.60;90.80
38488;DHT22;57384;51.986;4.458;2022-12-24T12:46:20;11.70;90.80
38488;DHT22;57384;51.986;4.458;2022-12-24T12:51:56;11.70;90.80
38488;DHT22;57384;51.986;4.458;2022-12-24T12:57:20;11.70;90.70
38488;DHT22;57384;51.986;4.458;2022-12-24T13:00:14;11.80;90.70
38488;DHT22;57384;51.986;4.458;2022-12-24T13:14:57;11.80;90.60
38488;DHT22;57384;51.986;4.458;2022-12-24T13:20:47;11.70;90.60
38488;DHT22;57384;51.986;4.458;2022-12-24T13:23:18;11.70;90.60
38488;DHT22;57384;51.986;4.458;2022-12-24T13:25:54;11.80;90.60
38488;DHT22;57384;51.986;4.458;2022-12-24T13:51:48;11.70;90.30
38488;DHT22;57384;51.986;4.458;2022-12-24T13:54:16;11.70;90.40
38488;DHT22;57384;51.986;4.458;2022-12-24T13:56:45;11.70;90.40
38488;DHT22;57384;51.986;4.458;2022-12-24T13:59:34;11.70;90.40
38488;DHT22;57384;51.986;4.458;2022-12-24T14:02:01;11.70;90.40
38488;DHT22;57384;51.986;4.458;2022-12-24T14:04:32;11.70;90.40
38488;DHT22;57384;51.986;4.458;2022-12-24T14:07:02;11.60;90.30
38488;DHT22;57384;51.986;4.458;2022-12-24T14:09:31;11.70;90.30
38488;DHT22;57384;51.986;4.458;2022-12-24T14:17:01;11.70;90.20
38488;DHT22;57384;51.986;4.458;2022-12-24T14:19:42;11.70;90.20
38488;DHT22;57384;51.986;4.458;2022-12-24T14:27:39;11.70;90.10
38488;DHT22;57384;51.986;4.458;2022-12-24T14:30:20;11.70;90.10
38488;DHT22;57384;51.986;4.458;2022-12-24T14:32:48;11.70;90.10
38488;DHT22;57384;51.986;4.458;2022-12-24T14:38:11;11.70;90.20
38488;DHT22;57384;51.986;4.458;2022-12-24T14:44:00;11.70;90.10
38488;DHT22;57384;51.986;4.458;2022-12-24T14:54:58;11.60;90.20
38488;DHT22;57384;51.986;4.458;2022-12-24T14:57:26;11.60;90.20
38488;DHT22;57384;51.986;4.458;2022-12-24T14:59:57;11.60;90.20
38488;DHT22;57384;51.986;4.458;2022-12-24T15:02:28;11.60;90.20
38488;DHT22;57384;51.986;4.458;2022-12-24T15:05:25;11.60;90.20
38488;DHT22;57384;51.986;4.458;2022-12-24T15:07:55;11.60;90.20
38488;DHT22;57384;51.986;4.458;2022-12-24T15:10:38;11.60;90.20
38488;DHT22;57384;51.986;4.458;2022-12-24T15:13:34;11.50;90.20
38488;DHT22;57384;51.986;4.458;2022-12-24T15:16:05;11.50;90.20
38488;DHT22;57384;51.986;4.458;2022-12-24T15:18:37;11.50;90.20
38488;DHT22;57384;51.986;4.458;2022-12-24T15:21:07;11.40;90.20
38488;DHT22;57384;51.986;4.458;2022-12-24T15:23:47;11.40;90.20
38488;DHT22;57384;51.986;4.458;2022-12-24T15:26:28;11.40;90.20
38488;DHT22;57384;51.986;4.458;2022-12-24T15:28:57;11.40;90.20
38488;DHT22;57384;51.986;4.458;2022-12-24T15:31:26;11.40;90.20
38488;DHT22;57384;51.986;4.458;2022-12-24T15:33:55;11.40;90.20
38488;DHT22;57384;51.986;4.458;2022-12-24T15:36:32;11.30;90.20
38488;DHT22;57384;51.986;4.458;2022-12-24T15:39:05;11.30;90.20
38488;DHT22;57384;51.986;4.458;2022-12-24T15:41:40;11.30;90.20
38488;DHT22;57384;51.986;4.458;2022-12-24T15:44:12;11.20;90.10
38488;DHT22;57384;51.986;4.458;2022-12-24T15:46:59;11.20;90.10
38488;DHT22;57384;51.986;4.458;2022-12-24T15:49:30;11.20;90.20
38488;DHT22;57384;51.986;4.458;2022-12-24T15:52:12;11.20;90.20
38488;DHT22;57384;51.986;4.458;2022-12-24T15:54:47;11.10;90.20
38488;DHT22;57384;51.986;4.458;2022-12-24T15:59:58;11.00;90.20
38488;DHT22;57384;51.986;4.458;2022-12-24T16:02:35;11.00;90.20
38488;DHT22;57384;51.986;4.458;2022-12-24T16:05:29;11.00;90.20
38488;DHT22;57384;51.986;4.458;2022-12-24T16:11:21;10.90;90.20
38488;DHT22;57384;51.986;4.458;2022-12-24T16:14:01;10.90;90.20
38488;DHT22;57384;51.986;4.458;2022-12-24T16:16:38;10.80;90.20
38488;DHT22;57384;51.986;4.458;2022-12-24T16:19:07;10.80;90.20
38488;DHT22;57384;51.986;4.458;2022-12-24T16:21:42;10.80;90.20
38488;DHT22;57384;51.986;4.458;2022-12-24T16:24:14;10.70;90.20
38488;DHT22;57384;51.986;4.458;2022-12-24T16:26:41;10.70;90.20
38488;DHT22;57384;51.986;4.458;2022-12-24T16:29:09;10.70;90.20
38488;DHT22;57384;51.986;4.458;2022-12-24T16:31:42;10.60;90.20
38488;DHT22;57384;51.986;4.458;2022-12-24T16:34:12;10.60;90.30
38488;DHT22;57384;51.986;4.458;2022-12-24T16:37:02;10.60;90.30
38488;DHT22;57384;51.986;4.458;2022-12-24T16:39:33;10.60;90.30
38488;DHT22;57384;51.986;4.458;2022-12-24T16:42:02;10.50;90.30
38488;DHT22;57384;51.986;4.458;2022-12-24T16:44:29;10.50;90.30
38488;DHT22;57384;51.986;4.458;2022-12-24T16:46:57;10.50;90.40
38488;DHT22;57384;51.986;4.458;2022-12-24T16:49:26;10.40;90.30
38488;DHT22;57384;51.986;4.458;2022-12-24T16:51:55;10.40;90.40
38488;DHT22;57384;51.986;4.458;2022-12-24T16:54:40;10.40;90.40
38488;DHT22;57384;51.986;4.458;2022-12-24T16:57:08;10.30;90.40
38488;DHT22;57384;51.986;4.458;2022-12-24T16:59:36;10.30;90.40
38488;DHT22;57384;51.986;4.458;2022-12-24T17:02:03;10.30;90.50
38488;DHT22;57384;51.986;4.458;2022-12-24T17:04:33;10.20;90.50
38488;DHT22;57384;51.986;4.458;2022-12-24T17:07:02;10.30;90.50
38488;DHT22;57384;51.986;4.458;2022-12-24T17:09:29;10.20;90.50
38488;DHT22;57384;51.986;4.458;2022-12-24T17:11:58;10.20;90.50
38488;DHT22;57384;51.986;4.458;2022-12-24T17:14:24;10.20;90.60
38488;DHT22;57384;51.986;4.458;2022-12-24T17:16:51;10.10;90.60
38488;DHT22;57384;51.986;4.458;2022-12-24T17:19:19;10.10;90.60
38488;DHT22;57384;51.986;4.458;2022-12-24T17:21:45;10.10;90.70
38488;DHT22;57384;51.986;4.458;2022-12-24T17:24:12;10.20;90.70
38488;DHT22;57384;51.986;4.458;2022-12-24T17:26:39;10.10;90.70
38488;DHT22;57384;51.986;4.458;2022-12-24T17:29:06;10.10;90.80
38488;DHT22;57384;51.986;4.458;2022-12-24T17:31:33;10.10;90.80
38488;DHT22;57384;51.986;4.458;2022-12-24T17:34:00;10.10;90.80
38488;DHT22;57384;51.986;4.458;2022-12-24T17:36:26;10.10;90.80
38488;DHT22;57384;51.986;4.458;2022-12-24T17:38:53;10.10;90.90
38488;DHT22;57384;51.986;4.458;2022-12-24T17:41:23;10.10;90.90
38488;DHT22;57384;51.986;4.458;2022-12-24T17:43:49;10.00;90.90
38488;DHT22;57384;51.986;4.458;2022-12-24T17:46:19;10.00;90.90
38488;DHT22;57384;51.986;4.458;2022-12-24T17:48:46;10.00;91.00
38488;DHT22;57384;51.986;4.458;2022-12-24T17:51:18;10.00;91.00
38488;DHT22;57384;51.986;4.458;2022-12-24T17:53:45;10.00;91.00
38488;DHT22;57384;51.986;4.458;2022-12-24T17:56:13;10.00;91.00
38488;DHT22;57384;51.986;4.458;2022-12-24T17:58:41;10.00;91.10
38488;DHT22;57384;51.986;4.458;2022-12-24T18:01:15;10.00;91.10
38488;DHT22;57384;51.986;4.458;2022-12-24T18:03:43;9.90;91.10
38488;DHT22;57384;51.986;4.458;2022-12-24T18:06:10;9.90;91.10
38488;DHT22;57384;51.986;4.458;2022-12-24T18:08:39;9.90;91.10
38488;DHT22;57384;51.986;4.458;2022-12-24T18:11:35;9.90;91.10
38488;DHT22;57384;51.986;4.458;2022-12-24T18:14:04;9.90;91.10
38488;DHT22;57384;51.986;4.458;2022-12-24T18:16:35;9.80;91.10
38488;DHT22;57384;51.986;4.458;2022-12-24T18:19:04;9.80;91.10
38488;DHT22;57384;51.986;4.458;2022-12-24T18:21:32;9.90;91.20
38488;DHT22;57384;51.986;4.458;2022-12-24T18:23:59;9.80;91.20
38488;DHT22;57384;51.986;4.458;2022-12-24T18:26:27;9.80;91.20
38488;DHT22;57384;51.986;4.458;2022-12-24T18:28:55;9.80;91.20
38488;DHT22;57384;51.986;4.458;2022-12-24T18:31:23;9.70;91.20
38488;DHT22;57384;51.986;4.458;2022-12-24T18:33:53;9.80;91.20
38488;DHT22;57384;51.986;4.458;2022-12-24T18:36:24;9.70;91.20
38488;DHT22;57384;51.986;4.458;2022-12-24T18:38:50;9.70;91.30
38488;DHT22;57384;51.986;4.458;2022-12-24T18:41:24;9.70;91.20
38488;DHT22;57384;51.986;4.458;2022-12-24T18:43:51;9.70;91.30
38488;DHT22;57384;51.986;4.458;2022-12-24T18:46:21;9.70;91.30
38488;DHT22;57384;51.986;4.458;2022-12-24T18:48:48;9.70;91.30
38488;DHT22;57384;51.986;4.458;2022-12-24T18:51:17;9.60;91.30
38488;DHT22;57384;51.986;4.458;2022-12-24T18:53:48;9.60;91.30
38488;DHT22;57384;51.986;4.458;2022-12-24T18:56:17;9.60;91.30
38488;DHT22;57384;51.986;4.458;2022-12-24T18:58:44;9.60;91.30
38488;DHT22;57384;51.986;4.458;2022-12-24T19:01:32;9.60;91.40
38488;DHT22;57384;51.986;4.458;2022-12-24T19:03:59;9.60;91.40
38488;DHT22;57384;51.986;4.458;2022-12-24T19:06:26;9.50;91.30
38488;DHT22;57384;51.986;4.458;2022-12-24T19:08:53;9.50;91.30
38488;DHT22;57384;51.986;4.458;2022-12-24T19:11:22;9.50;91.40
38488;DHT22;57384;51.986;4.458;2022-12-24T19:13:51;9.50;91.40
38488;DHT22;57384;51.986;4.458;2022-12-24T19:16:19;9.50;91.50
38488;DHT22;57384;51.986;4.458;2022-12-24T19:18:46;9.50;91.50
38488;DHT22;57384;51.986;4.458;2022-12-24T19:21:45;9.50;91.50
38488;DHT22;57384;51.986;4.458;2022-12-24T19:24:12;9.50;91.60